createdAt,value
2018-06-10T23:02:46.047Z,161.00
2018-06-10T23:05:16.771Z,204.83
2018-06-10T23:07:48.279Z,218.60
2018-06-10T23:08:55.093Z,197.80
2018-06-10T23:10:00.226Z,205.83
2018-06-10T23:11:06.905Z,199.00
2018-06-10T23:12:14.084Z,215.50
2018-06-10T23:13:19.164Z,191.33
2018-06-10T23:19:57.064Z,181.00
2018-06-10T23:21:02.981Z,209.33
2018-06-10T23:22:10.629Z,202.33
2018-06-10T23:23:15.770Z,204.67
2018-06-10T23:24:21.085Z,215.67
2018-06-10T23:25:26.267Z,201.17
2018-06-10T23:26:35.760Z,205.17
2018-06-10T23:27:42.880Z,220.20
2018-06-10T23:28:48.263Z,219.60
2018-06-10T23:29:55.670Z,211.00
2018-06-10T23:31:00.837Z,206.80
2018-06-10T23:32:07.688Z,197.50
2018-06-10T23:33:15.440Z,204.83
2018-06-10T23:34:20.379Z,184.00
2018-06-10T23:35:26.452Z,144.20
2018-06-10T23:36:33.369Z,107.00
2018-06-10T23:37:43.316Z,87.80
2018-06-10T23:38:48.699Z,81.00
2018-06-10T23:39:53.900Z,77.40
2018-06-10T23:40:59.697Z,76.20
2018-06-10T23:42:06.170Z,75.60
2018-06-10T23:43:13.501Z,75.60
2018-06-10T23:47:03.226Z,25.20
2018-06-10T23:48:10.303Z,25.40
2018-06-10T23:49:17.221Z,25.80
2018-06-10T23:50:23.062Z,27.00
2018-06-10T23:51:28.438Z,26.00
2018-06-10T23:52:33.835Z,27.00
2018-06-10T23:53:40.369Z,26.60
2018-06-10T23:54:45.477Z,27.80
2018-06-10T23:55:51.463Z,25.20
2018-06-10T23:56:58.740Z,27.00
2018-06-10T23:58:04.721Z,27.20
2018-06-10T23:59:17.575Z,27.00
